Terminal Aerodrome Forecast
Issued by NWS Detroit/Pontiac, MI

Home | Current Version | Previous Version | Text Only | Print | Product List | Glossary On
Versions: 1 2 3 4 5 6 7 8 9 10 11 12 13 14 15 16 17 18 19 20 21 22 23 24 25 26 27 28 29 30 31 32
177
FTUS43 KDTX 031507 AAA
TAFDTW
TAF AMD
KDTW 031507Z 0315/0418 VRB03KT P6SM SCT080
     FM031600 30004KT P6SM SCT050
     FM031900 25005KT P6SM BKN060
     FM040000 20005KT P6SM SCT060 BKN200
     FM040700 19004KT 6SM -SHRA SCT040 BKN080
     FM041000 19005KT 3SM -SHRA SCT012 BKN035
     FM041500 20008KT 6SM -SHRA BKN025=

USA.gov is the U.S. government's official web portal to all federal, state and local government web resources and services.